Time;durP1;ratioP1;P1;durP2;ratioP2;P2;SDS_P1;SDS_P2;PMS_P1;PMS_P2;Temp;Humidity;BMP_temperature;BMP_pressure;BME280_temperature;BME280_humidity;BME280_pressure;Samples;Min_cycle;Max_cycle;Signal;HPM_P1;HPM_P2
2022/08/20 00:00:47;;;;;;;9.35;3.42;;;18.20;99.90;;;;;;6219754;23;20074;-80
2022/08/20 00:03:26;;;;;;;12.07;4.00;;;18.20;99.90;;;;;;6220210;23;20487;-80
2022/08/20 00:06:02;;;;;;;26.73;5.20;;;18.20;99.90;;;;;;6219407;23;20085;-80
2022/08/20 00:08:29;;;;;;;17.85;4.53;;;18.20;99.90;;;;;;6220086;23;20023;-80
2022/08/20 00:10:56;;;;;;;11.68;4.88;;;18.20;99.90;;;;;;6247390;23;20083;-80
2022/08/20 00:13:28;;;;;;;14.38;4.40;;;18.20;99.90;;;;;;6246401;23;20027;-80
2022/08/20 00:15:54;;;;;;;14.57;4.95;;;18.10;99.90;;;;;;6220249;23;20309;-80
2022/08/20 00:18:20;;;;;;;11.00;4.78;;;18.10;99.90;;;;;;6247400;23;20016;-80
2022/08/20 00:20:48;;;;;;;15.07;5.03;;;18.10;99.90;;;;;;6219139;23;20012;-80
2022/08/20 00:23:15;;;;;;;14.77;5.00;;;18.20;99.90;;;;;;6246622;23;20020;-80
2022/08/20 00:25:42;;;;;;;14.80;4.80;;;18.10;99.90;;;;;;6247240;23;20340;-80
2022/08/20 00:28:07;;;;;;;13.55;4.57;;;18.10;99.90;;;;;;6218946;23;20027;-80
2022/08/20 00:30:35;;;;;;;12.35;4.70;;;18.10;99.90;;;;;;6246813;23;20360;-80
2022/08/20 00:33:05;;;;;;;13.15;5.20;;;18.10;99.90;;;;;;6247241;23;20388;-80
2022/08/20 00:35:34;;;;;;;12.63;4.95;;;18.10;99.90;;;;;;6246163;23;20008;-80
2022/08/20 00:38:00;;;;;;;10.05;4.00;;;18.10;99.90;;;;;;6220017;23;20016;-80
2022/08/20 00:40:30;;;;;;;19.05;5.05;;;18.10;99.90;;;;;;6246958;23;20107;-80
2022/08/20 00:42:58;;;;;;;18.88;5.45;;;18.10;99.90;;;;;;6246028;23;20020;-80
2022/08/20 00:45:27;;;;;;;8.23;4.25;;;18.10;99.90;;;;;;6219847;23;20016;-80
2022/08/20 00:47:56;;;;;;;10.00;4.55;;;18.10;99.90;;;;;;6246640;23;20175;-80
2022/08/20 00:50:35;;;;;;;10.93;5.20;;;18.10;99.90;;;;;;6246503;23;20016;-80
2022/08/20 00:53:04;;;;;;;11.57;5.15;;;18.00;99.90;;;;;;6219845;23;20051;-80
2022/08/20 00:55:31;;;;;;;15.05;5.45;;;18.00;99.90;;;;;;6218837;23;20387;-80
2022/08/20 00:58:01;;;;;;;15.27;5.22;;;17.90;99.90;;;;;;6219861;23;20048;-80
2022/08/20 01:00:36;;;;;;;16.27;5.68;;;17.90;99.90;;;;;;6219861;23;20020;-80
2022/08/20 01:03:04;;;;;;;11.38;5.40;;;17.90;99.90;;;;;;6218686;23;20153;-80
2022/08/20 01:05:29;;;;;;;8.88;4.80;;;17.80;99.90;;;;;;6246582;23;20094;-80
2022/08/20 01:07:56;;;;;;;14.60;5.97;;;17.80;99.90;;;;;;6219719;23;20376;-80
2022/08/20 01:10:30;;;;;;;13.48;6.38;;;17.80;99.90;;;;;;6193634;23;20024;-80
2022/08/20 01:12:57;;;;;;;;;;;17.80;99.90;;;;;;6246772;23;20367;-80
2022/08/20 01:15:28;;;;;;;8.68;5.22;;;17.70;99.90;;;;;;6246796;23;19915;-80
2022/08/20 01:17:59;;;;;;;14.98;5.80;;;17.70;99.90;;;;;;6218806;23;20016;-80
2022/08/20 01:20:39;;;;;;;12.30;5.65;;;17.70;99.90;;;;;;6219302;23;20055;-80
2022/08/20 01:23:28;;;;;;;15.07;5.75;;;17.70;99.90;;;;;;6245804;23;20023;-80
2022/08/20 01:26:17;;;;;;;16.73;6.35;;;17.70;99.90;;;;;;6219577;23;20051;-80
2022/08/20 01:28:46;;;;;;;12.88;5.75;;;17.70;99.90;;;;;;6219580;23;20082;-80
2022/08/20 01:31:21;;;;;;;17.10;5.82;;;17.60;99.90;;;;;;6245765;23;20019;-80
2022/08/20 01:33:48;;;;;;;14.98;5.60;;;17.60;99.90;;;;;;6219547;23;20016;-80
2022/08/20 01:36:17;;;;;;;15.48;5.95;;;17.60;99.90;;;;;;6219637;23;20046;-80
2022/08/20 01:38:43;;;;;;;13.75;6.20;;;17.60;99.90;;;;;;6218413;23;20016;-80
2022/08/20 01:41:21;;;;;;;18.25;5.80;;;17.50;99.90;;;;;;6194348;23;20020;-80
2022/08/20 01:43:55;;;;;;;17.58;7.10;;;17.50;99.90;;;;;;6246047;23;20023;-80
2022/08/20 01:46:36;;;;;;;12.73;5.25;;;17.50;99.90;;;;;;6245718;23;20016;-80
2022/08/20 01:49:17;;;;;;;13.35;6.15;;;17.50;99.90;;;;;;6219466;23;20050;-80
2022/08/20 01:51:43;;;;;;;18.67;5.47;;;17.50;99.90;;;;;;6218478;23;20016;-80
2022/08/20 01:54:09;;;;;;;14.07;5.97;;;17.40;99.90;;;;;;6219348;23;20070;-80
2022/08/20 01:56:48;;;;;;;12.13;5.47;;;17.40;99.90;;;;;;6219331;23;20451;-80
2022/08/20 01:59:14;;;;;;;13.80;5.55;;;17.40;99.90;;;;;;6245552;23;20017;-80
2022/08/20 02:01:40;;;;;;;15.95;5.85;;;17.40;99.90;;;;;;6246509;23;20023;-80
2022/08/20 02:04:08;;;;;;;20.20;5.57;;;17.40;99.90;;;;;;6219265;23;20345;-80
2022/08/20 02:06:39;;;;;;;13.43;5.90;;;17.40;99.90;;;;;;6245144;23;20432;-80
2022/08/20 02:09:06;;;;;;;11.60;5.65;;;17.40;99.90;;;;;;6219391;23;20376;-80
2022/08/20 02:11:33;;;;;;;14.18;5.75;;;17.30;99.90;;;;;;6245861;23;20458;-80
2022/08/20 02:14:00;;;;;;;13.70;6.35;;;17.20;99.90;;;;;;6218348;23;20008;-80
2022/08/20 02:16:30;;;;;;;15.95;6.55;;;17.20;99.90;;;;;;6245846;23;20087;-80
2022/08/20 02:19:00;;;;;;;19.98;6.60;;;17.20;99.90;;;;;;6219196;23;20047;-80
2022/08/20 02:21:30;;;;;;;18.75;7.32;;;17.10;99.90;;;;;;6218479;23;20463;-80
2022/08/20 02:23:56;;;;;;;12.23;6.35;;;17.10;99.90;;;;;;6246431;23;20024;-80
2022/08/20 02:26:22;;;;;;;14.82;7.68;;;17.10;99.90;;;;;;6246325;23;20020;-80
2022/08/20 02:28:51;;;;;;;18.33;7.97;;;17.10;99.90;;;;;;6219038;23;20051;-80
2022/08/20 02:31:19;;;;;;;19.27;7.20;;;17.10;99.90;;;;;;6246503;23;20385;-80
2022/08/20 02:33:45;;;;;;;16.48;6.65;;;17.00;99.90;;;;;;6220147;23;20381;-80
2022/08/20 02:36:13;;;;;;;14.43;6.63;;;17.00;99.90;;;;;;6221211;23;20567;-80
2022/08/20 02:38:40;;;;;;;13.23;7.13;;;17.00;99.90;;;;;;6247947;23;20020;-80
2022/08/20 02:41:06;;;;;;;17.38;7.50;;;16.90;99.90;;;;;;6220039;23;20095;-80
2022/08/20 02:43:32;;;;;;;13.80;5.05;;;16.90;99.90;;;;;;6248165;23;20020;-80
2022/08/20 02:45:59;;;;;;;17.35;7.20;;;16.90;99.90;;;;;;6220980;23;20484;-80
2022/08/20 02:48:25;;;;;;;17.27;6.35;;;16.90;99.90;;;;;;6247254;23;20051;-80
2022/08/20 02:51:02;;;;;;;12.88;6.40;;;16.80;99.90;;;;;;6248163;23;20078;-80
2022/08/20 02:53:33;;;;;;;11.75;5.78;;;16.80;99.90;;;;;;6221351;23;20451;-80
2022/08/20 02:55:59;;;;;;;18.10;6.53;;;16.80;99.90;;;;;;6247289;23;20016;-80
2022/08/20 02:58:26;;;;;;;15.48;6.18;;;16.80;99.90;;;;;;6220948;23;20063;-80
2022/08/20 03:00:52;;;;;;;16.98;7.43;;;16.80;99.90;;;;;;6220911;23;20102;-80
2022/08/20 03:03:21;;;;;;;24.27;6.95;;;16.70;99.90;;;;;;6219895;23;20016;-80
2022/08/20 03:05:47;;;;;;;12.20;5.03;;;16.70;99.90;;;;;;6220959;23;20444;-80
2022/08/20 03:08:14;;;;;;;13.55;5.78;;;16.70;99.90;;;;;;6247436;23;20023;-80
2022/08/20 03:10:42;;;;;;;12.05;5.80;;;16.60;99.90;;;;;;6219917;23;20373;-80
2022/08/20 03:13:12;;;;;;;12.68;6.10;;;16.60;99.90;;;;;;6220925;23;20020;-80
2022/08/20 03:15:41;;;;;;;11.15;5.03;;;16.50;99.90;;;;;;6247387;23;20388;-80
2022/08/20 03:18:06;;;;;;;7.25;3.97;;;16.50;99.90;;;;;;6247909;23;20023;-80
2022/08/20 03:20:33;;;;;;;13.82;5.65;;;16.50;99.90;;;;;;6247877;23;20008;-80
2022/08/20 03:22:59;;;;;;;8.10;4.32;;;16.50;99.90;;;;;;6219587;23;20020;-80
2022/08/20 03:25:25;;;;;;;15.50;6.10;;;16.40;99.90;;;;;;6220743;23;20024;-80
2022/08/20 03:27:51;;;;;;;4.68;4.25;;;16.40;99.90;;;;;;6247740;23;20020;-80
2022/08/20 03:30:18;;;;;;;10.68;5.82;;;16.40;99.90;;;;;;6219730;23;20019;-80
2022/08/20 03:32:44;;;;;;;15.93;6.05;;;16.30;99.90;;;;;;6247754;23;20039;-80
2022/08/20 03:35:13;;;;;;;13.35;6.05;;;16.30;99.90;;;;;;6247306;23;20509;-80
2022/08/20 03:37:40;;;;;;;11.57;5.05;;;16.30;99.90;;;;;;6220033;23;20074;-80
2022/08/20 03:40:11;;;;;;;8.23;4.82;;;16.30;99.90;;;;;;6247706;23;20012;-80
2022/08/20 03:42:38;;;;;;;14.10;5.82;;;16.30;99.90;;;;;;6247639;23;20016;-80
2022/08/20 03:45:05;;;;;;;17.45;4.90;;;16.20;99.90;;;;;;6246213;23;20058;-80
2022/08/20 03:47:31;;;;;;;11.02;5.40;;;16.20;99.90;;;;;;6247201;23;20031;-80
2022/08/20 03:49:59;;;;;;;15.48;5.57;;;16.20;99.90;;;;;;6247227;23;20012;-80
2022/08/20 03:52:25;;;;;;;12.38;4.95;;;16.20;99.90;;;;;;6246540;23;20089;-80
2022/08/20 03:54:51;;;;;;;9.82;4.57;;;16.10;99.90;;;;;;6247559;23;20023;-80
2022/08/20 03:57:17;;;;;;;8.10;3.80;;;16.10;99.90;;;;;;6247538;23;20332;-81
2022/08/20 03:59:43;;;;;;;11.20;4.57;;;16.10;99.90;;;;;;6246466;23;20013;-80
2022/08/20 04:02:10;;;;;;;11.98;4.00;;;16.10;99.90;;;;;;6247025;23;20447;-81
2022/08/20 04:04:37;;;;;;;10.95;4.28;;;16.10;99.90;;;;;;6247150;23;20027;-81
2022/08/20 04:07:24;;;;;;;9.73;4.22;;;16.10;99.90;;;;;;6219315;23;20094;-81
2022/08/20 04:09:56;;;;;;;13.63;4.57;;;16.10;99.90;;;;;;6247473;23;20088;-80
2022/08/20 04:12:24;;;;;;;10.02;3.70;;;16.10;99.90;;;;;;6246152;23;20012;-80
2022/08/20 04:14:51;;;;;;;11.95;3.67;;;16.00;99.90;;;;;;6220197;23;20471;-80
2022/08/20 04:17:18;;;;;;;9.07;4.07;;;16.00;99.90;;;;;;6221074;23;20368;-80
2022/08/20 04:19:44;;;;;;;9.73;4.40;;;16.00;99.90;;;;;;6219612;23;20012;-80
2022/08/20 04:22:14;;;;;;;13.48;4.35;;;16.00;99.90;;;;;;6246743;23;20023;-80
2022/08/20 04:24:43;;;;;;;12.93;4.57;;;15.90;99.90;;;;;;6220169;23;20460;-80
2022/08/20 04:27:09;;;;;;;10.75;4.80;;;16.00;99.90;;;;;;6245860;23;20471;-80
2022/08/20 04:29:36;;;;;;;15.75;3.75;;;16.00;99.90;;;;;;6220048;23;20046;-80
2022/08/20 04:32:03;;;;;;;9.20;3.67;;;15.90;99.90;;;;;;6219988;23;20012;-80
2022/08/20 04:34:29;;;;;;;10.25;3.70;;;15.90;99.90;;;;;;6219006;23;20533;-80
2022/08/20 04:36:55;;;;;;;12.25;4.30;;;15.90;99.90;;;;;;6220213;23;20039;-80
2022/08/20 04:39:21;;;;;;;10.52;4.00;;;15.90;99.90;;;;;;6194733;23;20040;-81
2022/08/20 04:41:47;;;;;;;14.32;3.67;;;15.90;99.90;;;;;;6219030;23;20024;-80
2022/08/20 04:44:13;;;;;;;12.27;3.70;;;15.90;99.90;;;;;;6246963;23;20095;-80
2022/08/20 04:46:39;;;;;;;10.85;4.03;;;15.80;99.90;;;;;;6247016;23;20043;-80
2022/08/20 04:49:06;;;;;;;13.07;3.42;;;15.80;99.90;;;;;;6218936;23;20016;-80
2022/08/20 04:51:32;;;;;;;14.75;4.10;;;15.80;99.90;;;;;;6219789;23;20020;-80
2022/08/20 04:53:59;;;;;;;11.90;3.75;;;15.80;99.90;;;;;;6219810;23;20019;-81
2022/08/20 04:56:27;;;;;;;8.93;3.55;;;15.80;99.90;;;;;;6245880;23;20016;-80
2022/08/20 04:58:56;;;;;;;11.07;3.70;;;15.70;99.90;;;;;;6246914;23;20016;-80
2022/08/20 05:01:22;;;;;;;12.15;3.70;;;15.70;99.90;;;;;;6245543;23;20020;-81
2022/08/20 05:03:49;;;;;;;17.02;4.32;;;15.70;99.90;;;;;;6246806;23;20028;-80
2022/08/20 05:06:16;;;;;;;12.45;3.90;;;15.60;99.90;;;;;;6220118;23;20023;-81
2022/08/20 05:08:43;;;;;;;11.23;4.03;;;15.60;99.90;;;;;;6245723;23;20012;-80
2022/08/20 05:11:09;;;;;;;11.75;3.97;;;15.60;99.90;;;;;;6246785;23;20016;-81
2022/08/20 05:13:35;;;;;;;13.38;3.97;;;15.60;99.90;;;;;;6246843;23;20095;-81
2022/08/20 05:16:03;;;;;;;15.45;5.78;;;15.60;99.90;;;;;;6245679;23;20039;-80
2022/08/20 05:18:32;;;;;;;5.78;2.75;;;15.50;99.90;;;;;;6219765;23;20059;-80
2022/08/20 05:21:04;;;;;;;7.47;3.50;;;15.50;99.90;;;;;;6246737;23;20375;-80
2022/08/20 05:23:32;;;;;;;11.43;4.38;;;15.40;99.90;;;;;;6218621;23;20017;-80
2022/08/20 05:25:58;;;;;;;6.85;2.95;;;15.40;99.90;;;;;;6246738;23;20119;-80
2022/08/20 05:28:31;;;;;;;13.52;4.00;;;15.40;99.90;;;;;;6219495;23;20092;-80
2022/08/20 05:30:58;;;;;;;12.45;3.45;;;15.40;99.90;;;;;;6245790;23;20016;-80
2022/08/20 05:33:25;;;;;;;11.75;3.85;;;15.40;99.90;;;;;;6219327;23;20044;-80
2022/08/20 05:35:52;;;;;;;7.28;3.63;;;15.40;99.90;;;;;;6246256;23;20011;-80
2022/08/20 05:38:20;;;;;;;6.82;3.03;;;15.40;99.90;;;;;;6218411;23;20031;-81
2022/08/20 05:40:47;;;;;;;7.97;2.75;;;15.50;99.90;;;;;;6219382;23;20020;-80
2022/08/20 05:43:13;;;;;;;9.73;3.47;;;15.50;99.90;;;;;;6219456;23;20017;-80
2022/08/20 05:45:41;;;;;;;9.15;3.58;;;15.60;99.90;;;;;;6218286;23;20463;-80
2022/08/20 05:48:10;;;;;;;10.38;3.50;;;15.70;99.90;;;;;;6219530;23;20020;-80
2022/08/20 05:50:37;;;;;;;14.80;4.60;;;15.70;99.90;;;;;;6218474;23;20390;-80
2022/08/20 05:53:02;;;;;;;10.68;3.63;;;15.80;99.90;;;;;;6219322;23;20028;-80
2022/08/20 05:55:28;;;;;;;12.95;3.50;;;15.80;99.90;;;;;;6246576;23;20012;-80
2022/08/20 05:58:00;;;;;;;18.80;3.67;;;15.90;99.90;;;;;;6218418;23;20085;-80
2022/08/20 06:00:27;;;;;;;12.10;3.95;;;16.00;99.90;;;;;;6246566;23;20343;-80
2022/08/20 06:05:38;;;;;;;12.95;2.85;;;16.30;99.90;;;;;;6245582;23;20063;-80
2022/08/20 06:08:05;;;;;;;13.50;2.70;;;16.40;99.90;;;;;;6247630;23;20012;-80
2022/08/20 06:10:31;;;;;;;7.53;2.42;;;16.50;99.90;;;;;;6221871;23;20502;-80
2022/08/20 06:12:57;;;;;;;9.07;2.33;;;16.60;99.90;;;;;;6220478;23;20016;-80
2022/08/20 06:15:22;;;;;;;10.15;2.95;;;16.70;99.90;;;;;;6221330;23;20016;-80
2022/08/20 06:17:48;;;;;;;11.70;2.95;;;16.80;99.90;;;;;;6221301;23;20017;-80
2022/08/20 06:20:14;;;;;;;11.20;2.13;;;16.90;99.90;;;;;;6220288;23;20062;-80
2022/08/20 06:22:40;;;;;;;8.07;2.08;;;17.00;99.90;;;;;;6220880;23;20031;-80
2022/08/20 06:25:06;;;;;;;8.20;2.20;;;17.00;99.90;;;;;;6248031;23;20055;-80
2022/08/20 06:27:33;;;;;;;7.07;1.80;;;17.10;99.90;;;;;;6220129;23;20023;-80
2022/08/20 06:29:59;;;;;;;13.32;3.45;;;17.10;99.90;;;;;;6248349;23;20019;-80
2022/08/20 06:32:25;;;;;;;8.30;1.90;;;17.20;99.90;;;;;;6248354;23;20039;-80
2022/08/20 06:34:52;;;;;;;9.15;1.90;;;17.30;99.90;;;;;;6247394;23;20050;-80
2022/08/20 06:37:26;;;;;;;7.55;2.25;;;17.30;99.90;;;;;;6221186;23;20074;-80
2022/08/20 06:39:52;;;;;;;10.18;2.17;;;17.40;99.90;;;;;;6195149;23;20020;-80
2022/08/20 06:42:19;;;;;;;10.60;2.88;;;17.40;99.90;;;;;;6248101;23;20023;-80
2022/08/20 06:44:48;;;;;;;8.52;2.05;;;17.50;99.90;;;;;;6195962;23;20020;-80
2022/08/20 06:47:18;;;;;;;9.25;1.92;;;17.50;99.90;;;;;;6220232;23;20386;-80
2022/08/20 06:49:44;;;;;;;10.57;2.25;;;17.60;99.90;;;;;;6221108;23;20348;-80
2022/08/20 06:52:10;;;;;;;7.57;1.85;;;17.70;99.90;;;;;;6220933;23;20016;-80
2022/08/20 06:54:36;;;;;;;9.63;1.88;;;17.80;99.90;;;;;;6246800;23;20340;-80
2022/08/20 06:57:02;;;;;;;7.50;1.73;;;17.80;99.90;;;;;;6248097;23;20023;-79
2022/08/20 06:59:28;;;;;;;7.32;1.52;;;17.90;99.90;;;;;;6248155;23;20317;-80
2022/08/20 07:01:55;;;;;;;9.60;1.77;;;18.00;99.90;;;;;;6219908;23;20020;-80
2022/08/20 07:04:23;;;;;;;8.57;1.75;;;18.10;99.90;;;;;;6247678;23;20026;-79
2022/08/20 07:06:51;;;;;;;9.48;1.73;;;18.10;99.90;;;;;;6220825;23;20016;-80
2022/08/20 07:09:20;;;;;;;7.65;2.00;;;18.20;99.90;;;;;;6219824;23;20050;-80
2022/08/20 07:11:48;;;;;;;9.95;1.98;;;18.20;99.90;;;;;;6221253;23;20023;-80
2022/08/20 07:14:15;;;;;;;8.60;1.80;;;18.20;99.90;;;;;;6247955;23;20023;-80
2022/08/20 07:16:41;;;;;;;9.10;1.90;;;18.20;99.90;;;;;;6246939;23;20023;-80
2022/08/20 07:19:07;;;;;;;12.15;2.20;;;18.20;99.90;;;;;;6220165;23;20066;-80
2022/08/20 07:21:33;;;;;;;8.18;1.60;;;18.30;99.90;;;;;;6220726;22;20391;-80
2022/08/20 07:23:59;;;;;;;8.65;1.67;;;18.30;99.90;;;;;;6246823;23;20023;-80
2022/08/20 07:26:25;;;;;;;6.97;1.58;;;18.30;99.90;;;;;;6221058;23;20070;-81
2022/08/20 07:28:51;;;;;;;9.65;1.52;;;18.30;99.90;;;;;;6246592;23;20464;-80
2022/08/20 07:34:01;;;;;;;9.27;1.60;;;18.40;99.90;;;;;;6247892;23;20020;-80
2022/08/20 07:36:27;;;;;;;6.43;1.73;;;18.40;99.90;;;;;;6219607;23;20027;-81
2022/08/20 07:38:53;;;;;;;10.85;1.55;;;18.40;99.90;;;;;;6220556;23;20016;-81
2022/08/20 07:41:19;;;;;;;7.90;2.00;;;18.40;99.90;;;;;;6220347;23;20013;-80
2022/08/20 07:43:46;;;;;;;8.07;1.23;;;18.50;99.90;;;;;;6246664;23;20074;-81
2022/08/20 07:46:17;;;;;;;5.95;1.48;;;18.50;99.90;;;;;;6247702;23;20018;-80
2022/08/20 07:48:45;;;;;;;6.88;1.52;;;18.60;99.90;;;;;;6247727;23;20027;-80
2022/08/20 07:51:13;;;;;;;8.30;1.55;;;18.60;99.90;;;;;;6246252;23;20020;-81
2022/08/20 07:53:40;;;;;;;5.72;1.20;;;18.70;99.90;;;;;;6220563;23;20023;-80
2022/08/20 07:56:10;;;;;;;6.75;1.55;;;18.70;99.90;;;;;;6220361;23;20012;-80
2022/08/20 07:58:40;;;;;;;9.43;1.90;;;18.80;99.90;;;;;;6219365;23;20147;-79
2022/08/20 08:01:06;;;;;;;11.48;1.67;;;18.90;99.90;;;;;;6220446;23;20023;-80
2022/08/20 08:03:32;;;;;;;8.70;1.60;;;19.10;99.90;;;;;;6247358;23;20090;-79
2022/08/20 08:05:59;;;;;;;5.10;1.55;;;19.10;99.90;;;;;;6246185;23;20050;-80
2022/08/20 08:08:27;;;;;;;5.97;1.65;;;19.20;99.90;;;;;;6247219;23;20016;-80
2022/08/20 08:10:58;;;;;;;12.40;2.15;;;19.20;99.90;;;;;;6247029;23;20548;-80
2022/08/20 08:13:26;;;;;;;6.18;1.70;;;19.30;99.90;;;;;;6246577;23;20012;-80
2022/08/20 08:15:56;;;;;;;7.43;1.63;;;19.30;99.90;;;;;;6247509;23;20016;-80
2022/08/20 08:18:27;;;;;;;6.22;1.30;;;19.20;99.90;;;;;;6246466;23;20028;-79
2022/08/20 08:20:53;;;;;;;6.32;1.88;;;19.30;99.90;;;;;;6221082;23;20091;-80
2022/08/20 08:23:23;;;;;;;9.40;2.03;;;19.30;99.90;;;;;;6246608;22;20016;-80
2022/08/20 08:25:52;;;;;;;11.73;1.33;;;19.30;99.90;;;;;;6219533;23;20020;-80
2022/08/20 08:28:19;;;;;;;9.23;1.83;;;19.30;99.90;;;;;;6247293;23;20027;-79
2022/08/20 08:30:47;;;;;;;8.40;1.77;;;19.30;99.90;;;;;;6247129;23;20012;-80
2022/08/20 08:33:27;;;;;;;5.40;1.02;;;19.40;99.90;;;;;;6219045;23;20481;-80
2022/08/20 08:35:55;;;;;;;5.55;1.50;;;19.50;99.90;;;;;;6247458;23;20078;-79
2022/08/20 08:38:22;;;;;;;8.73;2.40;;;19.60;99.90;;;;;;6247091;23;20012;-79
2022/08/20 08:40:53;;;;;;;7.68;1.52;;;19.70;99.90;;;;;;6245791;23;20440;-79
2022/08/20 08:43:25;;;;;;;5.22;1.20;;;19.70;99.90;;;;;;6245168;23;20452;-79
2022/08/20 08:46:02;;;;;;;7.38;1.40;;;19.80;99.90;;;;;;6220113;23;20499;-81
2022/08/20 08:48:42;;;;;;;7.30;1.67;;;19.80;99.90;;;;;;6245752;23;20020;-80
2022/08/20 08:51:11;;;;;;;9.63;1.95;;;19.80;99.90;;;;;;6219952;23;20066;-80
2022/08/20 08:53:49;;;;;;;10.02;1.60;;;19.80;99.90;;;;;;6218854;23;20448;-80
2022/08/20 08:56:15;;;;;;;9.93;2.03;;;19.80;99.90;;;;;;6247000;23;20336;-80
2022/08/20 08:58:43;;;;;;;7.90;1.70;;;19.80;99.90;;;;;;6246507;23;20027;-80
2022/08/20 09:01:19;;;;;;;7.57;1.27;;;19.80;99.90;;;;;;6245951;23;20321;-80
2022/08/20 09:03:48;;;;;;;9.05;1.90;;;19.80;99.90;;;;;;6219561;23;20020;-80
2022/08/20 09:06:19;;;;;;;6.35;1.45;;;19.80;99.90;;;;;;6246909;23;20047;-80
2022/08/20 09:08:52;;;;;;;9.95;1.50;;;19.90;99.90;;;;;;6218589;23;20016;-80
2022/08/20 09:11:21;;;;;;;13.07;1.75;;;19.80;99.90;;;;;;6219788;23;20020;-80
2022/08/20 09:13:47;;;;;;;7.57;1.33;;;19.90;99.90;;;;;;6219664;23;20069;-79
2022/08/20 09:16:13;;;;;;;10.52;1.75;;;20.00;99.90;;;;;;6245416;23;20448;-79
2022/08/20 09:18:39;;;;;;;13.45;1.60;;;20.00;99.90;;;;;;6219677;23;20016;-80
2022/08/20 09:21:06;;;;;;;9.23;1.55;;;20.00;99.90;;;;;;6219810;23;20091;-79
2022/08/20 09:23:33;;;;;;;6.95;1.10;;;20.10;99.90;;;;;;6218334;23;20031;-79
2022/08/20 09:25:58;;;;;;;5.00;1.20;;;20.20;99.90;;;;;;6246326;23;20020;-79
2022/08/20 09:28:25;;;;;;;7.85;1.70;;;20.30;99.90;;;;;;6219051;23;20020;-81
2022/08/20 09:30:51;;;;;;;10.18;1.40;;;20.30;99.90;;;;;;6247039;23;20018;-80
2022/08/20 09:33:16;;;;;;;9.70;1.80;;;20.30;99.90;;;;;;6219864;23;20340;-80
2022/08/20 09:35:44;;;;;;;7.00;1.58;;;20.40;99.90;;;;;;6245789;23;20016;-80
2022/08/20 09:38:11;;;;;;;5.53;1.40;;;20.50;99.90;;;;;;6219649;23;20028;-81
2022/08/20 09:40:36;;;;;;;8.38;1.40;;;20.60;99.90;;;;;;6219911;23;20018;-81
2022/08/20 09:43:05;;;;;;;10.32;1.88;;;20.60;99.90;;;;;;6192883;23;20016;-80
2022/08/20 09:45:31;;;;;;;14.25;1.77;;;20.70;99.90;;;;;;6246529;23;20040;-80
2022/08/20 09:47:57;;;;;;;8.60;1.67;;;20.70;99.90;;;;;;6246738;23;20023;-80
2022/08/20 09:50:25;;;;;;;6.47;1.40;;;20.80;99.90;;;;;;6243690;23;20099;-79
2022/08/20 09:52:52;;;;;;;11.52;1.95;;;20.80;99.90;;;;;;6246553;23;20356;-80
2022/08/20 09:55:31;;;;;;;8.23;1.55;;;20.90;99.90;;;;;;6246580;23;20154;-82
2022/08/20 09:57:58;;;;;;;8.20;1.42;;;21.00;99.90;;;;;;6218495;23;20524;-80
2022/08/20 10:00:24;;;;;;;4.95;1.20;;;21.10;99.90;;;;;;6246525;23;20094;-80
2022/08/20 10:02:50;;;;;;;8.88;1.65;;;21.10;99.90;;;;;;6194256;23;20044;-81
2022/08/20 10:05:15;;;;;;;4.97;1.08;;;21.20;99.90;;;;;;6193400;23;20020;-81
2022/08/20 10:07:42;;;;;;;8.30;1.45;;;21.20;99.90;;;;;;6219282;23;20044;-80
2022/08/20 10:10:10;;;;;;;9.52;1.20;;;21.20;99.90;;;;;;6246454;23;20024;-80
2022/08/20 10:12:36;;;;;;;10.02;1.77;;;21.30;99.90;;;;;;6218303;23;20020;-81
2022/08/20 10:15:02;;;;;;;9.70;1.30;;;21.40;99.90;;;;;;6219072;23;20012;-80
2022/08/20 10:17:28;;;;;;;6.80;1.52;;;21.40;99.90;;;;;;6219289;23;20016;-82
2022/08/20 10:19:53;;;;;;;8.30;2.33;;;21.50;99.90;;;;;;6218314;23;20482;-81
2022/08/20 10:22:19;;;;;;;3.85;1.10;;;21.60;99.90;;;;;;6193938;23;20016;-81
2022/08/20 10:24:45;;;;;;;7.88;2.05;;;21.60;99.90;;;;;;6218308;23;20321;-80
2022/08/20 10:27:11;;;;;;;10.15;1.55;;;21.60;99.90;;;;;;6219175;23;20023;-81
2022/08/20 10:29:37;;;;;;;8.60;1.52;;;21.60;99.90;;;;;;6219139;23;20082;-81
2022/08/20 10:32:11;;;;;;;7.40;1.70;;;21.70;99.90;;;;;;6218121;23;20106;-80
2022/08/20 10:34:41;;;;;;;8.23;1.60;;;21.70;99.90;;;;;;6246351;23;20016;-81
2022/08/20 10:37:08;;;;;;;7.93;1.80;;;21.70;99.90;;;;;;6219408;23;20043;-80
2022/08/20 10:39:35;;;;;;;7.18;1.52;;;21.70;99.90;;;;;;6244916;23;20026;-81
2022/08/20 10:42:01;;;;;;;7.70;1.45;;;21.60;99.90;;;;;;6246369;23;20012;-81
2022/08/20 10:44:26;;;;;;;6.35;2.05;;;21.60;99.90;;;;;;6245831;23;20079;-81
2022/08/20 10:46:52;;;;;;;20.65;3.25;;;21.60;99.90;;;;;;6218116;23;20024;-80
2022/08/20 10:49:18;;;;;;;7.15;1.60;;;21.50;99.90;;;;;;6219109;23;20459;-81
2022/08/20 10:51:43;;;;;;;7.70;1.98;;;21.50;99.90;;;;;;6245928;23;20016;-81
2022/08/20 10:54:09;;;;;;;8.05;2.05;;;21.50;99.90;;;;;;6246722;23;20011;-81
2022/08/20 10:56:35;;;;;;;5.75;1.73;;;21.40;99.90;;;;;;6248139;23;20009;-80
2022/08/20 10:59:01;;;;;;;8.63;2.03;;;21.40;99.90;;;;;;6247978;23;20365;-80
2022/08/20 11:01:26;;;;;;;9.35;2.70;;;21.40;99.90;;;;;;6246757;23;20008;-80
2022/08/20 11:03:52;;;;;;;11.48;2.63;;;21.30;99.90;;;;;;6247956;23;20062;-80
2022/08/20 11:06:18;;;;;;;9.13;1.98;;;21.20;99.90;;;;;;6220984;23;20024;-80
2022/08/20 11:08:44;;;;;;;6.78;1.50;;;21.30;99.90;;;;;;6247021;23;20020;-80
2022/08/20 11:11:09;;;;;;;8.63;2.10;;;21.40;99.90;;;;;;6247961;23;20012;-80
2022/08/20 11:13:35;;;;;;;9.07;1.70;;;21.50;99.90;;;;;;6220686;23;20016;-80
2022/08/20 11:16:02;;;;;;;5.85;1.42;;;21.60;99.90;;;;;;6246957;23;20018;-79
2022/08/20 11:18:29;;;;;;;6.55;1.60;;;21.70;99.90;;;;;;6247883;23;20012;-80
2022/08/20 11:20:55;;;;;;;12.30;2.47;;;21.80;99.90;;;;;;6247659;23;20340;-80
2022/08/20 11:23:21;;;;;;;8.13;1.50;;;21.90;99.90;;;;;;6220145;23;20091;-80
2022/08/20 11:25:47;;;;;;;8.07;1.73;;;22.00;99.90;;;;;;6220678;23;20109;-80
2022/08/20 11:28:14;;;;;;;9.65;2.13;;;22.20;99.90;;;;;;6219741;23;20074;-81
2022/08/20 11:30:40;;;;;;;6.82;1.45;;;22.30;99.90;;;;;;6247820;23;20019;-80
2022/08/20 11:33:06;;;;;;;8.20;1.98;;;22.30;99.90;;;;;;6247226;23;20020;-80
2022/08/20 11:35:34;;;;;;;7.28;1.52;;;22.30;99.90;;;;;;6220087;23;20107;-80
2022/08/20 11:38:00;;;;;;;9.45;1.80;;;22.20;99.90;;;;;;6248042;23;20336;-80
2022/08/20 11:40:27;;;;;;;5.72;1.80;;;22.10;99.90;;;;;;6221077;23;20012;-80
2022/08/20 11:42:53;;;;;;;9.20;1.77;;;22.00;99.30;;;;;;6219163;23;20012;-80
2022/08/20 11:45:19;;;;;;;10.35;2.88;;;21.80;99.90;;;;;;6220672;23;20023;-80
2022/08/20 11:47:45;;;;;;;6.13;1.60;;;21.80;99.90;;;;;;6247662;23;20012;-80
2022/08/20 11:50:16;;;;;;;7.15;1.70;;;21.70;99.90;;;;;;6219512;23;20026;-80
2022/08/20 11:52:42;;;;;;;7.35;1.65;;;21.70;99.90;;;;;;6247215;23;20027;-80
2022/08/20 11:55:10;;;;;;;8.45;2.35;;;21.60;99.90;;;;;;6220285;23;20012;-80
2022/08/20 11:57:41;;;;;;;8.20;1.48;;;21.60;99.90;;;;;;6246601;23;20020;-80
2022/08/20 12:00:11;;;;;;;6.75;1.33;;;21.50;99.90;;;;;;6220457;23;20008;-80
2022/08/20 12:02:38;;;;;;;7.18;1.70;;;21.50;99.90;;;;;;6220302;23;20016;-80
2022/08/20 12:05:04;;;;;;;8.07;2.20;;;21.40;99.90;;;;;;6219002;23;20016;-80
2022/08/20 12:07:30;;;;;;;6.05;1.70;;;21.40;99.90;;;;;;6220250;23;20387;-80
2022/08/20 12:09:56;;;;;;;8.18;2.85;;;21.30;99.90;;;;;;6220213;23;20020;-80
2022/08/20 12:12:22;;;;;;;5.70;1.60;;;21.30;99.90;;;;;;6219246;23;20467;-81
2022/08/20 12:14:50;;;;;;;8.68;1.85;;;21.30;99.90;;;;;;6220216;23;20055;-80
2022/08/20 12:17:22;;;;;;;7.43;1.60;;;21.40;99.90;;;;;;6219294;23;20039;-81
2022/08/20 12:19:50;;;;;;;9.38;2.10;;;21.30;99.90;;;;;;6220237;23;20016;-80
2022/08/20 12:22:16;;;;;;;8.70;1.80;;;21.30;99.90;;;;;;6219772;23;20047;-81
2022/08/20 12:24:42;;;;;;;8.10;1.80;;;21.20;99.90;;;;;;6219150;23;20054;-80
2022/08/20 12:27:18;;;;;;;8.90;1.60;;;21.10;99.90;;;;;;6220219;23;20023;-80
2022/08/20 12:29:45;;;;;;;7.93;1.75;;;21.20;99.90;;;;;;6220176;23;20026;-80
2022/08/20 12:32:12;;;;;;;7.15;1.65;;;21.30;99.90;;;;;;6219033;23;20016;-81
2022/08/20 12:34:39;;;;;;;8.25;1.67;;;21.50;99.90;;;;;;6195112;23;20147;-80
2022/08/20 12:37:14;;;;;;;6.72;1.40;;;21.70;99.90;;;;;;6220409;23;20336;-80
2022/08/20 12:39:42;;;;;;;9.93;1.40;;;22.00;99.00;;;;;;6194003;23;20027;-81
2022/08/20 12:42:09;;;;;;;8.55;1.85;;;22.20;98.90;;;;;;6246981;23;20016;-80
2022/08/20 12:44:36;;;;;;;5.35;1.48;;;22.40;98.60;;;;;;6246760;23;20027;-80
2022/08/20 12:47:10;;;;;;;7.15;1.90;;;22.50;97.30;;;;;;6193927;23;20401;-80
2022/08/20 12:49:36;;;;;;;6.88;1.60;;;22.60;96.90;;;;;;6246717;23;20508;-78
2022/08/20 12:52:03;;;;;;;5.93;1.55;;;22.60;96.30;;;;;;6246729;23;20082;-80